^^
Saratoga-Weather Station Historical Data
Daily Summary for June 1, 2021 Units:  Both    English   Metric
Daily Weekly Monthly Yearly Custom
  High: Low: Average:
Temperature: 47.7 °F /  8.7 °C 42.4 °F /  5.8 °C 44.2 °F /  6.8 °C
Dew Point: 46 °F /  7.8 °C 40.8 °F /  4.9 °C 42.6 °F /  5.9 °C
Humidity: 96% 91% 94%
Wind Speed: 12.1mph /  19.5km/h - 3.4mph /  5.5km/h
Wind Gust: 20mph /  32.2km/h - -
Wind- - SW
Pressure: 29.9 in /  1011.2 hPa 29.4 in /  995.3 hPa -
Precipitation: 0.41 in /  10.4 mm    
Historical Graphs
 
 
Tabular Data for June 1, 2021
Time Temperature Dew Point Pressure Wind Wind Speed Wind Gust Humidity Rainfall Rate (Hourly) solar
00:03 42.4 °F /  5.8 °C 40.8 °F /  4.9 °C 29.9in /  1011.2hPa NW 4mph /  6.4km/h 8mph /  12.9km/h 94% 0in /  0.0mm 0 W/m2
00:08 42.4 °F /  5.8 °C 40.8 °F /  4.9 °C 29.9in /  1011.2hPa NNW 2.9mph /  4.7km/h 12mph /  19.3km/h 94% 0in /  0.0mm 0 W/m2
00:13 42.4 °F /  5.8 °C 40.8 °F /  4.9 °C 29.9in /  1011.2hPa NW 4.9mph /  7.9km/h 5mph /  8km/h 94% 0in /  0.0mm 0 W/m2
00:18 42.4 °F /  5.8 °C 41.2 °F /  5.1 °C 29.9in /  1011.2hPa South 2mph /  3.2km/h 10mph /  16.1km/h 95% 0in /  0.0mm 0 W/m2
00:23 42.4 °F /  5.8 °C 41.2 °F /  5.1 °C 29.9in /  1010.8hPa SW 8.9mph /  14.3km/h 10mph /  16.1km/h 95% 0in /  0.0mm 0 W/m2
00:28 42.4 °F /  5.8 °C 41.2 °F /  5.1 °C 29.9in /  1010.8hPa NW 4.9mph /  7.9km/h 5mph /  8km/h 95% 0in /  0.0mm 0 W/m2
00:33 42.4 °F /  5.8 °C 41.2 °F /  5.1 °C 29.9in /  1010.8hPa WNW 4mph /  6.4km/h 5mph /  8km/h 95% 0in /  0.0mm 0 W/m2
00:38 42.4 °F /  5.8 °C 41.2 °F /  5.1 °C 29.9in /  1010.8hPa West 0.9mph /  1.4km/h 9mph /  14.5km/h 95% 0in /  0.0mm 0 W/m2
00:43 42.4 °F /  5.8 °C 41.2 °F /  5.1 °C 29.9in /  1010.8hPa WNW 6mph /  9.7km/h 9mph /  14.5km/h 95% 0in /  0.0mm 0 W/m2
00:48 42.4 °F /  5.8 °C 41.2 °F /  5.1 °C 29.8in /  1010.5hPa West 6.9mph /  11.1km/h 7mph /  11.3km/h 95% 0in /  0.0mm 0 W/m2
00:53 42.4 °F /  5.8 °C 41.2 °F /  5.1 °C 29.8in /  1010.2hPa WSW 0.9mph /  1.4km/h 7mph /  11.3km/h 95% 0in /  0.0mm 0 W/m2
00:58 42.4 °F /  5.8 °C 41.2 °F /  5.1 °C 29.8in /  1010.2hPa NW 2.9mph /  4.7km/h 7mph /  11.3km/h 95% 0in /  0.0mm 0 W/m2
01:03 42.4 °F /  5.8 °C 41.2 °F /  5.1 °C 29.8in /  1010.2hPa WNW 2mph /  3.2km/h 7mph /  11.3km/h 95% 0in /  0.0mm 0 W/m2
01:08 42.6 °F /  5.9 °C 41.4 °F /  5.2 °C 29.8in /  1010.2hPa North 2.9mph /  4.7km/h 7mph /  11.3km/h 95% 0in /  0.0mm 0 W/m2
01:13 42.6 °F /  5.9 °C 41.4 °F /  5.2 °C 29.8in /  1010.2hPa NW 4mph /  6.4km/h 8mph /  12.9km/h 95% 0in /  0.0mm 0 W/m2
01:18 42.6 °F /  5.9 °C 41.4 °F /  5.2 °C 29.8in /  1010.2hPa NW 4mph /  6.4km/h 7mph /  11.3km/h 95% 0in /  0.0mm 0 W/m2
01:23 42.6 °F /  5.9 °C 41.4 °F /  5.2 °C 29.8in /  1010.2hPa East 2mph /  3.2km/h 7mph /  11.3km/h 95% 0.01in /  0.2mm 0 W/m2
01:28 42.6 °F /  5.9 °C 41.4 °F /  5.2 °C 29.8in /  1009.8hPa West 2mph /  3.2km/h 12mph /  19.3km/h 95% 0.01in /  0.2mm 0 W/m2
01:33 42.6 °F /  5.9 °C 41.4 °F /  5.2 °C 29.8in /  1009.8hPa WNW 4mph /  6.4km/h 11mph /  17.7km/h 95% 0.01in /  0.2mm 0 W/m2
01:38 42.6 °F /  5.9 °C 41.4 °F /  5.2 °C 29.8in /  1009.5hPa West 2.9mph /  4.7km/h 7mph /  11.3km/h 95% 0.01in /  0.2mm 0 W/m2
01:43 42.6 °F /  5.9 °C 41.4 °F /  5.2 °C 29.8in /  1009.5hPa NW 2.9mph /  4.7km/h 12mph /  19.3km/h 95% 0.01in /  0.2mm 0 W/m2
01:48 42.8 °F /  6 °C 41.5 °F /  5.3 °C 29.8in /  1009.5hPa West 2.9mph /  4.7km/h 7mph /  11.3km/h 95% 0.01in /  0.2mm 0 W/m2
01:53 43 °F /  6.1 °C 41.7 °F /  5.4 °C 29.8in /  1009.1hPa WSW 6.9mph /  11.1km/h 9mph /  14.5km/h 95% 0.01in /  0.2mm 0 W/m2
01:58 43 °F /  6.1 °C 41.7 °F /  5.4 °C 29.8in /  1009.1hPa WNW 4.9mph /  7.9km/h 5mph /  8km/h 95% 0.01in /  0.2mm 0 W/m2
02:03 43 °F /  6.1 °C 41.7 °F /  5.4 °C 29.8in /  1009.1hPa West 2mph /  3.2km/h 20mph /  32.2km/h 95% 0.01in /  0.2mm 0 W/m2
02:08 43 °F /  6.1 °C 41.7 °F /  5.4 °C 29.8in /  1008.8hPa NNW 2.9mph /  4.7km/h 6mph /  9.7km/h 95% 0.01in /  0.2mm 0 W/m2
02:13 43.2 °F /  6.2 °C 41.5 °F /  5.3 °C 29.8in /  1008.8hPa WNW 6.9mph /  11.1km/h 8mph /  12.9km/h 94% 0.01in /  0.2mm 0 W/m2
02:18 43.2 °F /  6.2 °C 41.5 °F /  5.3 °C 29.8in /  1008.8hPa South 2.9mph /  4.7km/h 6mph /  9.7km/h 94% 0.01in /  0.2mm 0 W/m2
02:23 43.2 °F /  6.2 °C 41.5 °F /  5.3 °C 29.8in /  1008.8hPa NE 6.9mph /  11.1km/h 7mph /  11.3km/h 94% 0in /  0.0mm 0 W/m2
02:28 43.3 °F /  6.3 °C 41.7 °F /  5.4 °C 29.8in /  1008.8hPa SW 0.9mph /  1.4km/h 16mph /  25.7km/h 94% 0in /  0.0mm 0 W/m2
02:33 43.3 °F /  6.3 °C 41.7 °F /  5.4 °C 29.8in /  1008.8hPa WNW 0.9mph /  1.4km/h 12mph /  19.3km/h 94% 0in /  0.0mm 0 W/m2
02:38 43.5 °F /  6.4 °C 41.7 °F /  5.4 °C 29.8in /  1008.5hPa NNW 2mph /  3.2km/h 13mph /  20.9km/h 93% 0in /  0.0mm 0 W/m2
02:43 43.3 °F /  6.3 °C 41.5 °F /  5.3 °C 29.8in /  1008.5hPa South 4.9mph /  7.9km/h 12mph /  19.3km/h 93% 0in /  0.0mm 0 W/m2
02:48 43.3 °F /  6.3 °C 41.5 °F /  5.3 °C 29.8in /  1008.5hPa North 8.1mph /  13km/h 8mph /  12.9km/h 93% 0in /  0.0mm 0 W/m2
02:53 43.3 °F /  6.3 °C 41.5 °F /  5.3 °C 29.8in /  1008.5hPa NNW 2mph /  3.2km/h 12mph /  19.3km/h 93% 0in /  0.0mm 0 W/m2
02:58 43.3 °F /  6.3 °C 41.5 °F /  5.3 °C 29.8in /  1008.1hPa SW 2mph /  3.2km/h 8mph /  12.9km/h 93% 0in /  0.0mm 0 W/m2
03:03 43.3 °F /  6.3 °C 41.5 °F /  5.3 °C 29.8in /  1008.1hPa ENE 4mph /  6.4km/h 6mph /  9.7km/h 93% 0in /  0.0mm 0 W/m2
03:08 43.2 °F /  6.2 °C 41.4 °F /  5.2 °C 29.8in /  1007.8hPa WNW 2mph /  3.2km/h 5mph /  8km/h 93% 0in /  0.0mm 0 W/m2
03:13 43.2 °F /  6.2 °C 41.4 °F /  5.2 °C 29.8in /  1007.8hPa West 2mph /  3.2km/h 12mph /  19.3km/h 93% 0in /  0.0mm 0 W/m2
03:18 43.2 °F /  6.2 °C 41.4 °F /  5.2 °C 29.8in /  1007.5hPa NNW 2.9mph /  4.7km/h 4mph /  6.4km/h 93% 0in /  0.0mm 0 W/m2
03:23 43.2 °F /  6.2 °C 41.5 °F /  5.3 °C 29.8in /  1007.8hPa WSW 4mph /  6.4km/h 15mph /  24.1km/h 94% 0in /  0.0mm 0 W/m2
03:28 43.2 °F /  6.2 °C 41.5 °F /  5.3 °C 29.8in /  1007.5hPa WNW 6.9mph /  11.1km/h 10mph /  16.1km/h 94% 0in /  0.0mm 0 W/m2
03:33 43 °F /  6.1 °C 41.4 °F /  5.2 °C 29.8in /  1007.5hPa Calm   15mph /  24.1km/h 94% 0in /  0.0mm 0 W/m2
03:38 43.2 °F /  6.2 °C 41.5 °F /  5.3 °C 29.8in /  1007.5hPa WNW 0.9mph /  1.4km/h 10mph /  16.1km/h 94% 0in /  0.0mm 0 W/m2
03:43 43.2 °F /  6.2 °C 41.4 °F /  5.2 °C 29.7in /  1007.1hPa West 2.9mph /  4.7km/h 4mph /  6.4km/h 93% 0in /  0.0mm 0 W/m2
03:48 43.2 °F /  6.2 °C 41.4 °F /  5.2 °C 29.7in /  1007.1hPa NW 4.9mph /  7.9km/h 7mph /  11.3km/h 93% 0in /  0.0mm 0 W/m2
03:53 43.2 °F /  6.2 °C 41.4 °F /  5.2 °C 29.7in /  1006.8hPa SSW 6mph /  9.7km/h 7mph /  11.3km/h 93% 0in /  0.0mm 0 W/m2
03:58 43.2 °F /  6.2 °C 41.4 °F /  5.2 °C 29.7in /  1006.8hPa North 2mph /  3.2km/h 11mph /  17.7km/h 93% 0in /  0.0mm 0 W/m2
04:03 43.2 °F /  6.2 °C 41.4 °F /  5.2 °C 29.7in /  1006.4hPa SE 0.9mph /  1.4km/h 10mph /  16.1km/h 93% 0.01in /  0.2mm 0 W/m2
04:08 43.2 °F /  6.2 °C 41.4 °F /  5.2 °C 29.7in /  1006.4hPa WSW 6.9mph /  11.1km/h 7mph /  11.3km/h 93% 0.01in /  0.2mm 0 W/m2
04:13 43.2 °F /  6.2 °C 41.4 °F /  5.2 °C 29.7in /  1006.4hPa NNW 4.9mph /  7.9km/h 10mph /  16.1km/h 93% 0.01in /  0.2mm 0 W/m2
04:18 43.2 °F /  6.2 °C 41.4 °F /  5.2 °C 29.7in /  1006.1hPa North 2.9mph /  4.7km/h 6mph /  9.7km/h 93% 0.01in /  0.2mm 0 W/m2
04:23 43 °F /  6.1 °C 41.2 °F /  5.1 °C 29.7in /  1006.1hPa ENE 2mph /  3.2km/h 8mph /  12.9km/h 93% 0.01in /  0.2mm 0 W/m2
04:28 43 °F /  6.1 °C 41.2 °F /  5.1 °C 29.7in /  1006.1hPa NW 0.9mph /  1.4km/h 3mph /  4.8km/h 93% 0.01in /  0.2mm 0 W/m2
04:33 43 °F /  6.1 °C 41.2 °F /  5.1 °C 29.7in /  1005.8hPa SW 2mph /  3.2km/h 4mph /  6.4km/h 93% 0.01in /  0.2mm 0 W/m2
04:38 43 °F /  6.1 °C 41.2 °F /  5.1 °C 29.7in /  1005.8hPa Calm   9mph /  14.5km/h 93% 0.01in /  0.2mm 0 W/m2
04:43 43 °F /  6.1 °C 41.2 °F /  5.1 °C 29.7in /  1005.8hPa Calm   3mph /  4.8km/h 93% 0.01in /  0.2mm 0 W/m2
04:48 43 °F /  6.1 °C 41.2 °F /  5.1 °C 29.7in /  1005.4hPa West 2mph /  3.2km/h 4mph /  6.4km/h 93% 0.01in /  0.2mm 0 W/m2
04:53 43.2 °F /  6.2 °C 41.4 °F /  5.2 °C 29.7in /  1005.8hPa NW 4mph /  6.4km/h 5mph /  8km/h 93% 0.01in /  0.2mm 0 W/m2
04:58 43.2 °F /  6.2 °C 41.4 °F /  5.2 °C 29.7in /  1005.4hPa South 2mph /  3.2km/h 10mph /  16.1km/h 93% 0.01in /  0.2mm 0 W/m2
05:03 43.2 °F /  6.2 °C 41.4 °F /  5.2 °C 29.7in /  1005.4hPa North 4mph /  6.4km/h 5mph /  8km/h 93% 0in /  0.0mm 0 W/m2
05:08 43.3 °F /  6.3 °C 41.2 °F /  5.1 °C 29.7in /  1005.1hPa NW 4mph /  6.4km/h 10mph /  16.1km/h 92% 0in /  0.0mm 0 W/m2
05:13 43.5 °F /  6.4 °C 41.4 °F /  5.2 °C 29.7in /  1005.1hPa NNE 2.9mph /  4.7km/h 4mph /  6.4km/h 92% 0in /  0.0mm 0 W/m2
05:18 43.5 °F /  6.4 °C 41.4 °F /  5.2 °C 29.7in /  1005.1hPa WNW 2mph /  3.2km/h 12mph /  19.3km/h 92% 0in /  0.0mm 0 W/m2
05:23 43.7 °F /  6.5 °C 41.5 °F /  5.3 °C 29.7in /  1004.7hPa West 2mph /  3.2km/h 10mph /  16.1km/h 92% 0in /  0.0mm 0 W/m2
05:28 43.9 °F /  6.6 °C 41.7 °F /  5.4 °C 29.7in /  1004.7hPa SSW 0.9mph /  1.4km/h 12mph /  19.3km/h 92% 0in /  0.0mm 0 W/m2
05:33 44.1 °F /  6.7 °C 41.5 °F /  5.3 °C 29.7in /  1004.7hPa NE 2mph /  3.2km/h 11mph /  17.7km/h 91% 0in /  0.0mm 0 W/m2
05:38 44.1 °F /  6.7 °C 41.5 °F /  5.3 °C 29.7in /  1004.4hPa NNE 0.9mph /  1.4km/h 5mph /  8km/h 91% 0in /  0.0mm 0 W/m2
05:43 43.9 °F /  6.6 °C 41.4 °F /  5.2 °C 29.7in /  1004.4hPa WSW 0.9mph /  1.4km/h 11mph /  17.7km/h 91% 0in /  0.0mm 0 W/m2
05:48 43.9 °F /  6.6 °C 41.4 °F /  5.2 °C 29.7in /  1004.1hPa NW 0.9mph /  1.4km/h 5mph /  8km/h 91% 0in /  0.0mm 0 W/m2
05:53 43.9 °F /  6.6 °C 41.7 °F /  5.4 °C 29.7in /  1004.1hPa WNW 2.9mph /  4.7km/h 8mph /  12.9km/h 92% 0in /  0.0mm 0 W/m2
05:58 43.9 °F /  6.6 °C 41.7 °F /  5.4 °C 29.7in /  1004.1hPa WSW 2.9mph /  4.7km/h 5mph /  8km/h 92% 0in /  0.0mm 0 W/m2
06:03 43.7 °F /  6.5 °C 41.5 °F /  5.3 °C 29.6in /  1003.7hPa NW 2.9mph /  4.7km/h 5mph /  8km/h 92% 0in /  0.0mm 0 W/m2
06:08 43.7 °F /  6.5 °C 41.5 °F /  5.3 °C 29.7in /  1004.1hPa NW 2.9mph /  4.7km/h 9mph /  14.5km/h 92% 0in /  0.0mm 0 W/m2
06:13 43.5 °F /  6.4 °C 41.4 °F /  5.2 °C 29.6in /  1003.7hPa WNW 4mph /  6.4km/h 8mph /  12.9km/h 92% 0in /  0.0mm 0 W/m2
06:18 43.5 °F /  6.4 °C 41.7 °F /  5.4 °C 29.6in /  1003.7hPa North 2mph /  3.2km/h 5mph /  8km/h 93% 0in /  0.0mm 0 W/m2
06:23 43.5 °F /  6.4 °C 41.7 °F /  5.4 °C 29.6in /  1003.7hPa NNW 0.9mph /  1.4km/h 4mph /  6.4km/h 93% 0in /  0.0mm 0 W/m2
06:28 43.5 °F /  6.4 °C 41.7 °F /  5.4 °C 29.6in /  1003.7hPa West 6.9mph /  11.1km/h 7mph /  11.3km/h 93% 0in /  0.0mm 0 W/m2
06:33 43.7 °F /  6.5 °C 41.7 °F /  5.4 °C 29.6in /  1003.4hPa Calm   2mph /  3.2km/h 93% 0in /  0.0mm 0 W/m2
06:38 43.9 °F /  6.6 °C 41.9 °F /  5.5 °C 29.6in /  1003.0hPa NNW 2mph /  3.2km/h 4mph /  6.4km/h 93% 0in /  0.0mm 0 W/m2
06:43 43.9 °F /  6.6 °C 41.9 °F /  5.5 °C 29.6in /  1003.0hPa NNE 2mph /  3.2km/h 3mph /  4.8km/h 93% 0in /  0.0mm 0 W/m2
06:48 43.9 °F /  6.6 °C 41.9 °F /  5.5 °C 29.6in /  1003.0hPa ENE 0.9mph /  1.4km/h 4mph /  6.4km/h 93% 0in /  0.0mm 0 W/m2
06:53 44.1 °F /  6.7 °C 42.1 °F /  5.6 °C 29.6in /  1003.0hPa NNE 2.9mph /  4.7km/h 4mph /  6.4km/h 93% 0in /  0.0mm 0 W/m2
06:58 44.1 °F /  6.7 °C 42.1 °F /  5.6 °C 29.6in /  1002.7hPa NE 0.9mph /  1.4km/h 2mph /  3.2km/h 93% 0in /  0.0mm 0 W/m2
07:03 44.2 °F /  6.8 °C 42.3 °F /  5.7 °C 29.6in /  1002.7hPa North 0.9mph /  1.4km/h 4mph /  6.4km/h 93% 0in /  0.0mm 0 W/m2
07:08 44.2 °F /  6.8 °C 42.3 °F /  5.7 °C 29.6in /  1002.7hPa East 2mph /  3.2km/h 5mph /  8km/h 93% 0in /  0.0mm 0 W/m2
07:13 44.2 °F /  6.8 °C 42.3 °F /  5.7 °C 29.6in /  1002.4hPa NNE 4mph /  6.4km/h 7mph /  11.3km/h 93% 0in /  0.0mm 0 W/m2
07:18 44.2 °F /  6.8 °C 42.3 °F /  5.7 °C 29.6in /  1002.4hPa NE 2mph /  3.2km/h 5mph /  8km/h 93% 0in /  0.0mm 0 W/m2
07:23 44.2 °F /  6.8 °C 42.3 °F /  5.7 °C 29.6in /  1002.4hPa WNW 4.9mph /  7.9km/h 14mph /  22.5km/h 93% 0in /  0.0mm 0 W/m2
07:28 44.2 °F /  6.8 °C 42.3 °F /  5.7 °C 29.6in /  1002.0hPa NE 0.9mph /  1.4km/h 5mph /  8km/h 93% 0in /  0.0mm 0 W/m2
07:33 44.2 °F /  6.8 °C 42.3 °F /  5.7 °C 29.6in /  1002.0hPa NW 0.9mph /  1.4km/h 14mph /  22.5km/h 93% 0in /  0.0mm 0 W/m2
07:38 44.2 °F /  6.8 °C 42.3 °F /  5.7 °C 29.6in /  1002.0hPa NW 4mph /  6.4km/h 10mph /  16.1km/h 93% 0in /  0.0mm 0 W/m2
07:43 44.1 °F /  6.7 °C 42.1 °F /  5.6 °C 29.6in /  1002.0hPa West 6mph /  9.7km/h 12mph /  19.3km/h 93% 0in /  0.0mm 0 W/m2
07:48 44.1 °F /  6.7 °C 42.1 °F /  5.6 °C 29.6in /  1001.7hPa SW 4.9mph /  7.9km/h 6mph /  9.7km/h 93% 0in /  0.0mm 0 W/m2
07:53 43.9 °F /  6.6 °C 41.9 °F /  5.5 °C 29.6in /  1001.7hPa ENE 4mph /  6.4km/h 4mph /  6.4km/h 93% 0.01in /  0.2mm 0 W/m2
07:58 43.9 °F /  6.6 °C 42.3 °F /  5.7 °C 29.6in /  1001.7hPa NE 2.9mph /  4.7km/h 8mph /  12.9km/h 94% 0.02in /  0.5mm 0 W/m2
08:03 43.9 °F /  6.6 °C 42.3 °F /  5.7 °C 29.6in /  1001.4hPa South 2mph /  3.2km/h 5mph /  8km/h 94% 0.02in /  0.5mm 0 W/m2
08:08 43.7 °F /  6.5 °C 42.1 °F /  5.6 °C 29.6in /  1001.4hPa North 2.9mph /  4.7km/h 4mph /  6.4km/h 94% 0.04in /  1.0mm 0 W/m2
08:13 43.5 °F /  6.4 °C 41.9 °F /  5.5 °C 29.6in /  1001.0hPa NE 2mph /  3.2km/h 5mph /  8km/h 94% 0.05in /  1.3mm 0 W/m2
08:18 43.5 °F /  6.4 °C 41.9 °F /  5.5 °C 29.6in /  1001.0hPa NW 4mph /  6.4km/h 7mph /  11.3km/h 94% 0.06in /  1.5mm 0 W/m2
08:23 43.5 °F /  6.4 °C 41.9 °F /  5.5 °C 29.6in /  1001.0hPa NNE 2.9mph /  4.7km/h 4mph /  6.4km/h 94% 0.06in /  1.5mm 0 W/m2
08:28 43.5 °F /  6.4 °C 41.9 °F /  5.5 °C 29.6in /  1000.7hPa WSW 8.1mph /  13km/h 11mph /  17.7km/h 94% 0.08in /  2.0mm 0 W/m2
08:33 43.7 °F /  6.5 °C 42.1 °F /  5.6 °C 29.6in /  1000.7hPa West 2mph /  3.2km/h 9mph /  14.5km/h 94% 0.08in /  2.0mm 0 W/m2
08:38 43.7 °F /  6.5 °C 42.1 °F /  5.6 °C 29.6in /  1000.7hPa NNW 2mph /  3.2km/h 6mph /  9.7km/h 94% 0.08in /  2.0mm 5 W/m2
08:43 43.5 °F /  6.4 °C 41.9 °F /  5.5 °C 29.5in /  1000.3hPa NE 2mph /  3.2km/h 6mph /  9.7km/h 94% 0.09in /  2.3mm 11 W/m2
08:48 43.5 °F /  6.4 °C 41.9 °F /  5.5 °C 29.5in /  1000.3hPa NNW 4.9mph /  7.9km/h 12mph /  19.3km/h 94% 0.09in /  2.3mm 9 W/m2
08:53 43.5 °F /  6.4 °C 41.9 °F /  5.5 °C 29.5in /  1000.3hPa WNW 10.1mph /  16.3km/h 13mph /  20.9km/h 94% 0.09in /  2.3mm 11 W/m2
08:58 43.5 °F /  6.4 °C 41.9 °F /  5.5 °C 29.5in /  1000.3hPa NNW 4mph /  6.4km/h 7mph /  11.3km/h 94% 0.09in /  2.3mm 12 W/m2
09:03 43.7 °F /  6.5 °C 42.1 °F /  5.6 °C 29.5in /  1000.0hPa NE 2mph /  3.2km/h 13mph /  20.9km/h 94% 0.08in /  2.0mm 11 W/m2
09:08 43.7 °F /  6.5 °C 42.1 °F /  5.6 °C 29.5in /  1000.0hPa ENE 8.1mph /  13km/h 9mph /  14.5km/h 94% 0.07in /  1.8mm 21 W/m2
09:13 43.9 °F /  6.6 °C 42.3 °F /  5.7 °C 29.5in /  1000.0hPa NE 0.9mph /  1.4km/h 10mph /  16.1km/h 94% 0.07in /  1.8mm 23 W/m2
09:18 43.9 °F /  6.6 °C 42.3 °F /  5.7 °C 29.5in /  1000.0hPa West 2mph /  3.2km/h 13mph /  20.9km/h 94% 0.07in /  1.8mm 26 W/m2
09:23 43.9 °F /  6.6 °C 42.3 °F /  5.7 °C 29.5in /  999.7hPa Calm   7mph /  11.3km/h 94% 0.07in /  1.8mm 19 W/m2
09:28 43.9 °F /  6.6 °C 42.3 °F /  5.7 °C 29.5in /  999.7hPa East 4mph /  6.4km/h 14mph /  22.5km/h 94% 0.06in /  1.5mm 12 W/m2
09:33 43.9 °F /  6.6 °C 42.3 °F /  5.7 °C 29.5in /  999.7hPa NW 2.9mph /  4.7km/h 10mph /  16.1km/h 94% 0.07in /  1.8mm 12 W/m2
09:38 43.9 °F /  6.6 °C 42.3 °F /  5.7 °C 29.5in /  999.3hPa NNE 4mph /  6.4km/h 14mph /  22.5km/h 94% 0.08in /  2.0mm 14 W/m2
09:43 43.9 °F /  6.6 °C 42.3 °F /  5.7 °C 29.5in /  999.3hPa NNW 2mph /  3.2km/h 5mph /  8km/h 94% 0.09in /  2.3mm 21 W/m2
09:48 44.1 °F /  6.7 °C 42.4 °F /  5.8 °C 29.5in /  999.3hPa North 2mph /  3.2km/h 9mph /  14.5km/h 94% 0.09in /  2.3mm 19 W/m2
09:54 44.1 °F /  6.7 °C 42.4 °F /  5.8 °C 29.5in /  999.3hPa WSW 2mph /  3.2km/h 11mph /  17.7km/h 94% 0.09in /  2.3mm 19 W/m2
09:59 44.1 °F /  6.7 °C 42.4 °F /  5.8 °C 29.5in /  999.3hPa NNW 4.9mph /  7.9km/h 6mph /  9.7km/h 94% 0.09in /  2.3mm 18 W/m2
10:04 44.1 °F /  6.7 °C 42.4 °F /  5.8 °C 29.5in /  999.3hPa ENE 4.9mph /  7.9km/h 12mph /  19.3km/h 94% 0.09in /  2.3mm 16 W/m2
10:09 44.1 °F /  6.7 °C 42.4 °F /  5.8 °C 29.5in /  999.0hPa West 4mph /  6.4km/h 9mph /  14.5km/h 94% 0.11in /  2.8mm 35 W/m2
10:14 44.2 °F /  6.8 °C 42.6 °F /  5.9 °C 29.5in /  999.0hPa NW 4mph /  6.4km/h 17mph /  27.4km/h 94% 0.1in /  2.5mm 32 W/m2
10:19 44.2 °F /  6.8 °C 43 °F /  6.1 °C 29.5in /  999.0hPa NNW 4.9mph /  7.9km/h 8mph /  12.9km/h 95% 0.1in /  2.5mm 44 W/m2
10:24 44.2 °F /  6.8 °C 43 °F /  6.1 °C 29.5in /  999.0hPa North 8.1mph /  13km/h 17mph /  27.4km/h 95% 0.1in /  2.5mm 37 W/m2
10:29 44.2 °F /  6.8 °C 43 °F /  6.1 °C 29.5in /  998.6hPa SW 0.9mph /  1.4km/h 8mph /  12.9km/h 95% 0.1in /  2.5mm 35 W/m2
10:34 44.2 °F /  6.8 °C 43 °F /  6.1 °C 29.5in /  998.6hPa WNW 12.1mph /  19.5km/h 14mph /  22.5km/h 95% 0.1in /  2.5mm 23 W/m2
10:39 44.2 °F /  6.8 °C 43 °F /  6.1 °C 29.5in /  998.6hPa ENE 2.9mph /  4.7km/h 7mph /  11.3km/h 95% 0.1in /  2.5mm 21 W/m2
10:44 44.2 °F /  6.8 °C 43 °F /  6.1 °C 29.5in /  998.6hPa WNW 2mph /  3.2km/h 14mph /  22.5km/h 95% 0.09in /  2.3mm 26 W/m2
10:49 44.4 °F /  6.9 °C 43.2 °F /  6.2 °C 29.5in /  998.6hPa ESE 2mph /  3.2km/h 8mph /  12.9km/h 95% 0.09in /  2.3mm 21 W/m2
10:54 44.4 °F /  6.9 °C 43.2 °F /  6.2 °C 29.5in /  998.6hPa West 4mph /  6.4km/h 12mph /  19.3km/h 95% 0.09in /  2.3mm 16 W/m2
10:59 44.4 °F /  6.9 °C 43.2 °F /  6.2 °C 29.5in /  998.3hPa West 2mph /  3.2km/h 6mph /  9.7km/h 95% 0.08in /  2.0mm 26 W/m2
11:04 44.4 °F /  6.9 °C 43.2 °F /  6.2 °C 29.5in /  998.3hPa North 4mph /  6.4km/h 12mph /  19.3km/h 95% 0.07in /  1.8mm 23 W/m2
11:09 44.6 °F /  7 °C 43.3 °F /  6.3 °C 29.5in /  998.3hPa ESE 4mph /  6.4km/h 7mph /  11.3km/h 95% 0.06in /  1.5mm 23 W/m2
11:14 44.6 °F /  7 °C 43.3 °F /  6.3 °C 29.5in /  998.0hPa SSE 2.9mph /  4.7km/h 9mph /  14.5km/h 95% 0.06in /  1.5mm 25 W/m2
11:19 44.8 °F /  7.1 °C 43.5 °F /  6.4 °C 29.5in /  998.0hPa NW 4.9mph /  7.9km/h 9mph /  14.5km/h 95% 0.05in /  1.3mm 42 W/m2
11:24 44.8 °F /  7.1 °C 43.5 °F /  6.4 °C 29.5in /  998.0hPa ENE 2mph /  3.2km/h 8mph /  12.9km/h 95% 0.05in /  1.3mm 35 W/m2
11:29 44.8 °F /  7.1 °C 43.5 °F /  6.4 °C 29.5in /  998.0hPa ENE 2mph /  3.2km/h 10mph /  16.1km/h 95% 0.05in /  1.3mm 51 W/m2
11:34 45 °F /  7.2 °C 43.7 °F /  6.5 °C 29.5in /  998.0hPa NE 6.9mph /  11.1km/h 7mph /  11.3km/h 95% 0.04in /  1.0mm 33 W/m2
11:39 45 °F /  7.2 °C 43.7 °F /  6.5 °C 29.5in /  997.6hPa WNW 2.9mph /  4.7km/h 10mph /  16.1km/h 95% 0.04in /  1.0mm 30 W/m2
11:44 45 °F /  7.2 °C 43.7 °F /  6.5 °C 29.5in /  997.3hPa SE 2mph /  3.2km/h 10mph /  16.1km/h 95% 0.03in /  0.8mm 44 W/m2
11:49 45 °F /  7.2 °C 43.7 °F /  6.5 °C 29.5in /  997.3hPa West 6mph /  9.7km/h 10mph /  16.1km/h 95% 0.03in /  0.8mm 56 W/m2
11:54 45 °F /  7.2 °C 43.7 °F /  6.5 °C 29.5in /  997.3hPa WSW 2.9mph /  4.7km/h 5mph /  8km/h 95% 0.03in /  0.8mm 44 W/m2
11:59 45 °F /  7.2 °C 43.7 °F /  6.5 °C 29.5in /  997.3hPa East 8.1mph /  13km/h 10mph /  16.1km/h 95% 0.04in /  1.0mm 42 W/m2
12:04 45.1 °F /  7.3 °C 43.9 °F /  6.6 °C 29.5in /  997.3hPa North 4mph /  6.4km/h 7mph /  11.3km/h 95% 0.04in /  1.0mm 30 W/m2
12:09 45.1 °F /  7.3 °C 43.9 °F /  6.6 °C 29.4in /  997.0hPa NW 4mph /  6.4km/h 9mph /  14.5km/h 95% 0.04in /  1.0mm 53 W/m2
12:14 45.1 °F /  7.3 °C 43.9 °F /  6.6 °C 29.4in /  997.0hPa NNE 8.1mph /  13km/h 10mph /  16.1km/h 95% 0.05in /  1.3mm 40 W/m2
12:19 45.1 °F /  7.3 °C 43.9 °F /  6.6 °C 29.4in /  997.0hPa NNE 0.9mph /  1.4km/h 6mph /  9.7km/h 95% 0.05in /  1.3mm 23 W/m2
12:24 45.3 °F /  7.4 °C 44.1 °F /  6.7 °C 29.4in /  997.0hPa ENE 0.9mph /  1.4km/h 2mph /  3.2km/h 95% 0.04in /  1.0mm 39 W/m2
12:29 45.3 °F /  7.4 °C 44.1 °F /  6.7 °C 29.4in /  996.6hPa North 2.9mph /  4.7km/h 4mph /  6.4km/h 95% 0.04in /  1.0mm 26 W/m2
12:34 45.3 °F /  7.4 °C 44.1 °F /  6.7 °C 29.4in /  997.0hPa SSW 2.9mph /  4.7km/h 7mph /  11.3km/h 95% 0.04in /  1.0mm 19 W/m2
12:39 45.3 °F /  7.4 °C 44.1 °F /  6.7 °C 29.4in /  997.0hPa Calm   4mph /  6.4km/h 95% 0.03in /  0.8mm 19 W/m2
12:44 45.3 °F /  7.4 °C 44.1 °F /  6.7 °C 29.4in /  996.6hPa West 2mph /  3.2km/h 5mph /  8km/h 95% 0.03in /  0.8mm 19 W/m2
12:49 45.5 °F /  7.5 °C 44.2 °F /  6.8 °C 29.4in /  996.3hPa SSW 4mph /  6.4km/h 5mph /  8km/h 95% 0.03in /  0.8mm 26 W/m2
12:54 45.7 °F /  7.6 °C 44.4 °F /  6.9 °C 29.4in /  996.3hPa WNW 2mph /  3.2km/h 5mph /  8km/h 95% 0.03in /  0.8mm 32 W/m2
12:59 45.7 °F /  7.6 °C 44.4 °F /  6.9 °C 29.4in /  996.3hPa WNW 0.9mph /  1.4km/h 3mph /  4.8km/h 95% 0.02in /  0.5mm 23 W/m2
13:04 45.9 °F /  7.7 °C 44.4 °F /  6.9 °C 29.4in /  996.3hPa NE 0.9mph /  1.4km/h 6mph /  9.7km/h 95% 0.03in /  0.8mm 19 W/m2
13:09 45.9 °F /  7.7 °C 44.4 °F /  6.9 °C 29.4in /  995.9hPa Calm   4mph /  6.4km/h 95% 0.03in /  0.8mm 33 W/m2
13:14 45.9 °F /  7.7 °C 44.8 °F /  7.1 °C 29.4in /  995.9hPa WNW 4.9mph /  7.9km/h 9mph /  14.5km/h 96% 0.02in /  0.5mm 60 W/m2
13:19 46 °F /  7.8 °C 45 °F /  7.2 °C 29.4in /  995.9hPa SSW 2mph /  3.2km/h 6mph /  9.7km/h 96% 0.02in /  0.5mm 40 W/m2
13:24 46.2 °F /  7.9 °C 44.8 °F /  7.1 °C 29.4in /  995.9hPa Calm   6mph /  9.7km/h 95% 0.02in /  0.5mm 33 W/m2
13:29 46.6 °F /  8.1 °C 45.1 °F /  7.3 °C 29.4in /  995.9hPa West 2.9mph /  4.7km/h 4mph /  6.4km/h 95% 0.02in /  0.5mm 62 W/m2
13:34 46.6 °F /  8.1 °C 45.1 °F /  7.3 °C 29.4in /  995.6hPa NNW 4mph /  6.4km/h 10mph /  16.1km/h 95% 0.02in /  0.5mm 51 W/m2
13:39 46.8 °F /  8.2 °C 45.3 °F /  7.4 °C 29.4in /  995.6hPa NW 2.9mph /  4.7km/h 11mph /  17.7km/h 95% 0.02in /  0.5mm 91 W/m2
13:44 46.9 °F /  8.3 °C 45.5 °F /  7.5 °C 29.4in /  995.6hPa West 2.9mph /  4.7km/h 7mph /  11.3km/h 95% 0.02in /  0.5mm 88 W/m2
13:49 47.1 °F /  8.4 °C 45.7 °F /  7.6 °C 29.4in /  995.6hPa SW 2.9mph /  4.7km/h 10mph /  16.1km/h 95% 0.02in /  0.5mm 54 W/m2
13:54 47.3 °F /  8.5 °C 45.7 °F /  7.6 °C 29.4in /  995.3hPa WSW 2mph /  3.2km/h 6mph /  9.7km/h 94% 0.01in /  0.2mm 74 W/m2
13:59 47.5 °F /  8.6 °C 45.9 °F /  7.7 °C 29.4in /  995.3hPa West 2mph /  3.2km/h 12mph /  19.3km/h 94% 0.01in /  0.2mm 62 W/m2
14:04 47.7 °F /  8.7 °C 46 °F /  7.8 °C 29.4in /  995.3hPa WNW 8.1mph /  13km/h 13mph /  20.9km/h 94% 0.01in /  0.2mm 32 W/m2
14:09 47.7 °F /  8.7 °C 45.7 °F /  7.6 °C 29.4in /  995.3hPa WSW 4mph /  6.4km/h 7mph /  11.3km/h 93% 0.02in /  0.5mm 14 W/m2
14:14 47.7 °F /  8.7 °C 45.7 °F /  7.6 °C 29.4in /  995.3hPa NW 4mph /  6.4km/h 11mph /  17.7km/h 93% 0.02in /  0.5mm 23 W/m2
14:19 47.5 °F /  8.6 °C 45.5 °F /  7.5 °C 29.4in /  995.3hPa WNW 4.9mph /  7.9km/h 11mph /  17.7km/h 93% 0.03in /  0.8mm 32 W/m2
14:24 47.5 °F /  8.6 °C 45.5 °F /  7.5 °C 29.4in /  995.3hPa WNW 4mph /  6.4km/h 11mph /  17.7km/h 93% 0.03in /  0.8mm 40 W/m2
14:29 47.5 °F /  8.6 °C 45.5 °F /  7.5 °C 29.4in /  995.3hPa WSW 2.9mph /  4.7km/h 13mph /  20.9km/h 93% 0.04in /  1.0mm 30 W/m2
14:34 47.5 °F /  8.6 °C 45.5 °F /  7.5 °C 29.4in /  995.3hPa WSW 12.1mph /  19.5km/h 12mph /  19.3km/h 93% 0.05in /  1.3mm 35 W/m2
14:39 47.5 °F /  8.6 °C 45.5 °F /  7.5 °C 29.4in /  995.3hPa SW 4.9mph /  7.9km/h 14mph /  22.5km/h 93% 0.05in /  1.3mm 105 W/m2
14:44 47.5 °F /  8.6 °C 45.5 °F /  7.5 °C 29.4in /  995.3hPa WNW 4mph /  6.4km/h 12mph /  19.3km/h 93% 0.05in /  1.3mm 86 W/m2
14:49 47.5 °F /  8.6 °C 45.5 °F /  7.5 °C 29.4in /  995.3hPa WNW 2.9mph /  4.7km/h 8mph /  12.9km/h 93% 0.05in /  1.3mm 30 W/m2
14:54 47.5 °F /  8.6 °C 45.5 °F /  7.5 °C 29.4in /  995.3hPa WSW 4mph /  6.4km/h 12mph /  19.3km/h 93% 0.05in /  1.3mm 19 W/m2
14:59 47.5 °F /  8.6 °C 45.5 °F /  7.5 °C 29.4in /  995.3hPa WSW 6.9mph /  11.1km/h 14mph /  22.5km/h 93% 0.05in /  1.3mm 23 W/m2
15:04 47.3 °F /  8.5 °C 45.3 °F /  7.4 °C 29.4in /  995.6hPa West 4mph /  6.4km/h 8mph /  12.9km/h 93% 0.04in /  1.0mm 25 W/m2
15:09 47.1 °F /  8.4 °C 45.1 °F /  7.3 °C 29.4in /  995.6hPa NW 11mph /  17.7km/h 14mph /  22.5km/h 93% 0.03in /  0.8mm 46 W/m2
15:14 47.3 °F /  8.5 °C 45.3 °F /  7.4 °C 29.4in /  995.6hPa West 8.1mph /  13km/h 8mph /  12.9km/h 93% 0.03in /  0.8mm 60 W/m2
15:19 47.1 °F /  8.4 °C 45 °F /  7.2 °C 29.4in /  995.6hPa WSW 4mph /  6.4km/h 13mph /  20.9km/h 92% 0.02in /  0.5mm 32 W/m2
15:24 47.1 °F /  8.4 °C 45 °F /  7.2 °C 29.4in /  995.6hPa West 10.1mph /  16.3km/h 13mph /  20.9km/h 92% 0.02in /  0.5mm 46 W/m2
Juneau County Weather
Compliments of Weather Underground - 2 mb